Cortez, CO

9:05 AM MDT on April 25, 2015 (GMT -0600)
Kelly Place B&B, McElmo Canyon | | Change Station
CLOSE
Current Station
Personal Weather Station
Location: Cortez, CO
Elevation: 5522 ft
Nearby Weather Stations

Elev 5522 ft 37.34 °N, 108.79 °W | Updated 9 seconds ago

Partly Cloudy
Partly Cloudy
49.1 °F
Feels Like 49 °F
N
0.0
Wind Variable Wind from ENE
Gusts 0.0 mph

Today
High -- | Low -- °F
--% Chance of Precip.
Yesterday
High -- | Low -- °F
Precip. -- in
6:27 AM 7:59 PM
Waxing Crescent, 46% visible
Pressure 29.81 in
Visibility 10.0 miles
Clouds Clear
Windchill 49 °F
Dew Point 39 °F
Humidity 68%
Rainfall 0.00 in
Snow Depth Not available.
UV 1 out of 12
Pollen 9.20 out of 12
Air Quality Not available.
Flu Activity Sporadic
METAR KCEZ 251353Z AUTO 08003KT 10SM CLR 07/04 A2993 RMK AO2 RAE02 SLP094 P0000 T00720044

More Conditions Fewer Conditions

Pressure 29.81 in
Visibility 10.0 miles
Clouds Clear
Windchill 49 °F
Dew Point 39 °F
Humidity 68%
Rainfall 0.00 in
Snow Depth Not available.
UV 1 out of 12
Pollen 9.20 out of 12
Air Quality Not available.
Flu Activity Sporadic
METAR KCEZ 251353Z AUTO 08003KT 10SM CLR 07/04 A2993 RMK AO2 RAE02 SLP094 P0000 T00720044

More Conditions Fewer Conditions

10-Day Weather Forecast

Almanac

Astronomy

Apr. 25, 2015 Rise Set
Actual Time
Civil Twilight
Nautical Twilight
Astronomical Twilight
Moon
Length of Visible Light
Length of Day
Tomorrow will be .
, % of the Moon is Illuminated

Today's Extremes

State Highs State Lows

Community

WunderPhotos

Upload Photos

1,816,703 photos uploaded!

WunderBlogs® & News

Nearby

Air Quality

  Air Quality AQ Index Pollutant
Not available.

Snow Depth

Station Depth Elevation

Earthquake Activity

City Distance Mag. Time & Date
Minimum magnitude displayed is 2.5.

Coastal Water Temperatures

Place Temperature

Stations

Nearby Weather Stations

Station Location Temp. Windchill Dew Point Humidity Wind Precip. Elev Updated Type